createdAt,value
2023-04-09T00:00:18.570Z,0.00
2023-04-09T00:01:18.532Z,0.00
2023-04-09T00:02:18.518Z,0.00
2023-04-09T00:03:18.636Z,0.00
2023-04-09T00:04:18.556Z,0.00
2023-04-09T00:05:18.491Z,0.00
2023-04-09T00:06:18.507Z,0.00
2023-04-09T00:07:18.466Z,0.00
2023-04-09T00:08:18.452Z,0.00
2023-04-09T00:09:18.437Z,0.00
2023-04-09T00:10:18.425Z,0.00
2023-04-09T00:11:18.419Z,0.00
2023-04-09T00:12:18.426Z,0.00
2023-04-09T00:13:22.747Z,0.00
2023-04-09T00:14:18.391Z,0.00
2023-04-09T00:15:30.186Z,0.00
2023-04-09T00:16:18.406Z,0.00
2023-04-09T00:17:18.389Z,0.00
2023-04-09T00:18:18.349Z,0.00
2023-04-09T00:19:18.327Z,0.00
2023-04-09T00:20:18.329Z,0.00
2023-04-09T00:21:18.323Z,0.00
2023-04-09T00:22:18.320Z,0.00
2023-04-09T00:23:18.284Z,0.00
2023-04-09T00:24:18.275Z,0.00
2023-04-09T00:25:18.277Z,0.00
2023-04-09T00:26:18.258Z,0.00
2023-04-09T00:27:18.244Z,0.00
2023-04-09T00:28:18.257Z,0.00
2023-04-09T00:29:18.217Z,0.00
2023-04-09T00:30:18.212Z,0.00
2023-04-09T00:31:20.117Z,0.00
2023-04-09T00:32:18.186Z,0.00
2023-04-09T00:33:18.178Z,0.00
2023-04-09T00:34:18.175Z,0.00
2023-04-09T00:35:18.148Z,0.00
2023-04-09T00:36:18.149Z,0.00
2023-04-09T00:37:18.176Z,0.00
2023-04-09T00:38:18.135Z,0.00
2023-04-09T00:39:18.116Z,0.00
2023-04-09T00:40:18.108Z,0.00
2023-04-09T00:41:18.082Z,0.00
2023-04-09T00:42:18.099Z,0.00
2023-04-09T00:43:18.068Z,0.00
2023-04-09T00:44:18.058Z,0.00
2023-04-09T00:45:18.040Z,0.00
2023-04-09T00:46:18.196Z,0.00
2023-04-09T00:47:18.052Z,0.00
2023-04-09T00:48:18.012Z,0.00
2023-04-09T00:49:18.009Z,0.00
2023-04-09T00:50:17.995Z,0.00
2023-04-09T00:51:17.983Z,0.00
2023-04-09T00:52:17.964Z,0.00
2023-04-09T00:53:17.982Z,0.00
2023-04-09T00:54:17.942Z,0.00
2023-04-09T00:55:17.938Z,0.00
2023-04-09T00:56:17.936Z,0.00
2023-04-09T00:57:17.907Z,0.00
2023-04-09T00:58:17.904Z,0.00
2023-04-09T00:59:17.914Z,0.00
2023-04-09T01:00:17.886Z,0.00
2023-04-09T01:01:17.924Z,0.00
2023-04-09T01:02:17.945Z,0.00
2023-04-09T01:03:17.899Z,0.00
2023-04-09T01:04:17.860Z,0.00
2023-04-09T01:05:17.814Z,0.00
2023-04-09T01:06:17.814Z,0.00
2023-04-09T01:07:17.794Z,0.00
2023-04-09T01:08:17.789Z,0.00
2023-04-09T01:09:17.776Z,0.00
2023-04-09T01:10:17.801Z,0.00
2023-04-09T01:11:17.758Z,0.00
2023-04-09T01:12:17.747Z,0.00
2023-04-09T01:13:17.734Z,0.00
2023-04-09T01:14:17.724Z,0.00
2023-04-09T01:15:17.712Z,0.00
2023-04-09T01:16:17.748Z,0.00
2023-04-09T01:17:17.680Z,0.00
2023-04-09T01:18:17.681Z,0.00
2023-04-09T01:19:17.660Z,0.00
2023-04-09T01:20:17.674Z,0.00
2023-04-09T01:21:17.655Z,0.00
2023-04-09T01:22:17.631Z,0.00
2023-04-09T01:23:17.615Z,0.00
2023-04-09T01:24:17.615Z,0.00
2023-04-09T01:25:17.594Z,0.00
2023-04-09T01:26:17.604Z,0.00
2023-04-09T01:27:17.575Z,0.00
2023-04-09T01:28:17.567Z,0.00
2023-04-09T01:29:17.550Z,0.00
2023-04-09T01:30:17.549Z,0.00
2023-04-09T01:31:17.550Z,0.00
2023-04-09T01:32:17.533Z,0.00
2023-04-09T01:33:17.506Z,0.00
2023-04-09T01:34:17.502Z,0.00
2023-04-09T01:35:17.487Z,0.00
2023-04-09T01:36:17.492Z,0.00
2023-04-09T01:37:17.481Z,0.00
2023-04-09T01:38:17.454Z,0.00
2023-04-09T01:39:17.456Z,0.00
2023-04-09T01:40:17.459Z,0.00
2023-04-09T01:41:17.489Z,0.00
2023-04-09T01:42:17.426Z,0.00
2023-04-09T01:43:17.397Z,0.00
2023-04-09T01:44:17.384Z,0.00
2023-04-09T01:45:17.377Z,0.00
2023-04-09T01:46:17.429Z,0.00
2023-04-09T01:47:17.354Z,0.00
2023-04-09T01:48:17.339Z,0.00
2023-04-09T01:49:17.333Z,0.00
2023-04-09T01:50:17.352Z,0.00
2023-04-09T01:51:17.315Z,0.00
2023-04-09T01:52:17.299Z,0.00
2023-04-09T01:53:17.287Z,0.00
2023-04-09T01:54:17.295Z,0.00
2023-04-09T01:55:17.265Z,0.00
2023-04-09T01:56:17.281Z,0.00
2023-04-09T01:57:17.265Z,0.00
2023-04-09T01:58:17.238Z,0.00
2023-04-09T01:59:17.240Z,0.00
2023-04-09T02:00:17.223Z,0.00
2023-04-09T02:01:17.233Z,0.00
2023-04-09T02:02:17.246Z,0.00
2023-04-09T02:03:17.298Z,0.00
2023-04-09T02:04:17.195Z,0.00
2023-04-09T02:05:17.175Z,0.00
2023-04-09T02:06:17.150Z,0.00
2023-04-09T02:07:17.129Z,0.00
2023-04-09T02:08:17.115Z,0.00
2023-04-09T02:09:17.143Z,0.00
2023-04-09T02:10:17.101Z,0.00
2023-04-09T02:11:17.081Z,0.00
2023-04-09T02:12:17.075Z,0.00
2023-04-09T02:13:17.063Z,0.00
2023-04-09T02:14:17.057Z,0.00
2023-04-09T02:15:17.065Z,0.00
2023-04-09T02:16:17.102Z,0.00
2023-04-09T02:17:17.031Z,0.00
2023-04-09T02:18:17.013Z,0.00
2023-04-09T02:19:16.997Z,0.00
2023-04-09T02:20:17.032Z,0.00
2023-04-09T02:21:16.978Z,0.00
2023-04-09T02:22:16.959Z,0.00
2023-04-09T02:23:16.954Z,0.00
2023-04-09T02:24:16.936Z,0.00
2023-04-09T02:25:16.933Z,0.00
2023-04-09T02:26:16.942Z,0.00
2023-04-09T02:27:16.915Z,0.00
2023-04-09T02:28:16.910Z,0.00
2023-04-09T02:29:16.892Z,0.00
2023-04-09T02:30:16.891Z,0.00
2023-04-09T02:31:16.944Z,0.00
2023-04-09T02:32:16.867Z,0.00
2023-04-09T02:33:16.856Z,0.00
2023-04-09T02:34:16.830Z,0.00
2023-04-09T02:35:16.825Z,0.00
2023-04-09T02:36:16.833Z,0.00
2023-04-09T02:37:16.807Z,0.00
2023-04-09T02:38:16.798Z,0.00
2023-04-09T02:39:16.782Z,0.00
2023-04-09T02:40:16.781Z,0.00
2023-04-09T02:41:16.761Z,0.00
2023-04-09T02:42:16.765Z,0.00
2023-04-09T02:43:16.735Z,0.00
2023-04-09T02:44:16.730Z,0.00
2023-04-09T02:45:16.710Z,0.00
2023-04-09T02:46:16.724Z,0.00
2023-04-09T02:47:16.711Z,0.00
2023-04-09T02:48:16.675Z,0.00
2023-04-09T02:49:16.671Z,0.00
2023-04-09T02:50:16.661Z,0.00
2023-04-09T02:51:16.646Z,0.00
2023-04-09T02:52:16.640Z,0.00
2023-04-09T02:53:16.659Z,0.00
2023-04-09T02:54:16.614Z,0.00
2023-04-09T02:55:16.608Z,0.00
2023-04-09T02:56:16.589Z,0.00
2023-04-09T02:57:16.610Z,0.00
2023-04-09T02:58:16.571Z,0.00
2023-04-09T02:59:16.561Z,0.00
2023-04-09T03:00:16.551Z,0.00
2023-04-09T03:01:16.578Z,0.00
2023-04-09T03:02:16.666Z,0.00
2023-04-09T03:03:16.732Z,0.00
2023-04-09T03:04:16.562Z,0.00
2023-04-09T03:05:16.508Z,0.00
2023-04-09T03:06:16.485Z,0.00
2023-04-09T03:07:16.469Z,0.00
2023-04-09T03:08:16.485Z,0.00
2023-04-09T03:09:16.490Z,0.00
2023-04-09T03:10:16.444Z,0.00
2023-04-09T03:11:16.427Z,0.00
2023-04-09T03:12:16.421Z,0.00
2023-04-09T03:13:16.408Z,0.00
2023-04-09T03:14:16.423Z,0.00
2023-04-09T03:15:16.388Z,0.00
2023-04-09T03:16:16.406Z,0.00
2023-04-09T03:17:16.372Z,0.00
2023-04-09T03:18:16.362Z,0.00
2023-04-09T03:19:16.344Z,0.00
2023-04-09T03:20:16.389Z,0.00
2023-04-09T03:21:16.324Z,0.00
2023-04-09T03:22:16.323Z,0.00
2023-04-09T03:23:16.299Z,0.00
2023-04-09T03:24:16.304Z,0.00
2023-04-09T03:25:16.274Z,0.00
2023-04-09T03:26:16.292Z,0.00
2023-04-09T03:27:16.279Z,0.00
2023-04-09T03:28:16.250Z,0.00
2023-04-09T03:29:16.232Z,0.00
2023-04-09T03:30:16.255Z,0.00
2023-04-09T03:31:16.232Z,0.00
2023-04-09T03:32:18.569Z,0.00
2023-04-09T03:33:16.211Z,0.00
2023-04-09T03:34:16.180Z,0.00
2023-04-09T03:35:16.179Z,0.00
2023-04-09T03:36:16.161Z,0.00
2023-04-09T03:37:16.151Z,0.00
2023-04-09T03:38:16.159Z,0.00
2023-04-09T03:39:16.122Z,0.00
2023-04-09T03:40:16.128Z,0.00
2023-04-09T03:41:16.117Z,0.00
2023-04-09T03:42:16.101Z,0.00
2023-04-09T03:43:16.122Z,0.00
2023-04-09T03:44:16.084Z,0.00
2023-04-09T03:45:16.059Z,0.00
2023-04-09T03:46:16.112Z,0.00
2023-04-09T03:47:16.042Z,0.00
2023-04-09T03:48:16.034Z,0.00
2023-04-09T03:49:16.038Z,0.00
2023-04-09T03:50:16.009Z,0.00
2023-04-09T03:51:15.992Z,0.00
2023-04-09T03:52:15.983Z,0.00
2023-04-09T03:53:15.968Z,0.00
2023-04-09T03:54:15.978Z,0.00
2023-04-09T03:55:15.951Z,0.00
2023-04-09T03:56:15.935Z,0.00
2023-04-09T03:57:15.927Z,0.00
2023-04-09T03:58:15.920Z,0.00
2023-04-09T03:59:15.924Z,0.00
2023-04-09T04:00:15.922Z,0.00
2023-04-09T04:01:15.883Z,0.00
2023-04-09T04:02:15.982Z,0.00
2023-04-09T04:03:16.026Z,0.00
2023-04-09T04:04:15.973Z,0.00
2023-04-09T04:05:15.837Z,0.00
2023-04-09T04:06:15.831Z,0.00
2023-04-09T04:07:15.845Z,0.00
2023-04-09T04:08:15.809Z,0.00
2023-04-09T04:09:15.797Z,0.00
2023-04-09T04:10:15.782Z,0.00
2023-04-09T04:11:15.777Z,0.00
2023-04-09T04:12:15.761Z,0.00
2023-04-09T04:13:15.791Z,0.00
2023-04-09T04:14:15.768Z,0.00
2023-04-09T04:15:15.731Z,0.00
2023-04-09T04:16:15.760Z,0.00
2023-04-09T04:17:15.705Z,0.00
2023-04-09T04:18:15.696Z,0.00
2023-04-09T04:19:15.761Z,0.00
2023-04-09T04:20:15.679Z,0.00
2023-04-09T04:21:15.686Z,0.00
2023-04-09T04:22:15.650Z,0.00
2023-04-09T04:23:15.644Z,0.00
2023-04-09T04:24:15.636Z,0.00
2023-04-09T04:25:15.631Z,0.00
2023-04-09T04:26:15.627Z,0.00
2023-04-09T04:27:15.599Z,0.00
2023-04-09T04:28:15.583Z,0.00
2023-04-09T04:29:15.601Z,0.00
2023-04-09T04:30:15.571Z,0.00
2023-04-09T04:31:15.580Z,0.00
2023-04-09T04:32:15.547Z,0.00
2023-04-09T04:33:15.532Z,0.00
2023-04-09T04:34:15.549Z,0.00
2023-04-09T04:35:15.510Z,0.00
2023-04-09T04:36:15.540Z,0.00
2023-04-09T04:37:15.491Z,0.00
2023-04-09T04:38:15.484Z,0.00
2023-04-09T04:39:15.467Z,0.00
2023-04-09T04:40:15.482Z,0.00
2023-04-09T04:41:15.450Z,5.62
2023-04-09T04:42:15.432Z,5.62
2023-04-09T04:43:15.424Z,5.62
2023-04-09T04:44:15.409Z,5.62
2023-04-09T04:45:15.431Z,5.62
2023-04-09T04:46:15.479Z,5.62
2023-04-09T04:47:15.388Z,11.25
2023-04-09T04:48:15.370Z,11.25
2023-04-09T04:49:15.393Z,11.25
2023-04-09T04:50:15.358Z,11.25
2023-04-09T04:51:15.365Z,11.25
2023-04-09T04:52:17.653Z,16.88
2023-04-09T04:53:15.320Z,16.88
2023-04-09T04:54:15.303Z,16.88
2023-04-09T04:55:15.355Z,16.88
2023-04-09T04:56:15.313Z,22.50
2023-04-09T04:57:15.296Z,22.50
2023-04-09T04:58:15.261Z,22.50
2023-04-09T04:59:15.249Z,22.50
2023-04-09T05:00:21.321Z,28.12
2023-04-09T05:01:15.306Z,28.12
2023-04-09T05:02:15.290Z,28.12
2023-04-09T05:03:15.358Z,28.12
2023-04-09T05:04:15.192Z,33.75
2023-04-09T05:05:15.230Z,33.75
2023-04-09T05:06:15.170Z,33.75
2023-04-09T05:07:15.182Z,39.38
2023-04-09T05:08:15.162Z,39.38
2023-04-09T05:09:15.138Z,39.38
2023-04-09T05:10:15.126Z,45.00
2023-04-09T05:11:15.138Z,45.00
2023-04-09T05:12:15.100Z,45.00
2023-04-09T05:13:15.119Z,50.62
2023-04-09T05:14:15.090Z,50.62
2023-04-09T05:15:15.088Z,50.62
2023-04-09T05:16:15.084Z,56.25
2023-04-09T05:17:15.052Z,56.25
2023-04-09T05:18:15.057Z,56.25
2023-04-09T05:19:15.030Z,61.88
2023-04-09T05:20:15.026Z,61.88
2023-04-09T05:21:15.009Z,61.88
2023-04-09T05:22:14.997Z,67.50
2023-04-09T05:23:15.017Z,67.50
2023-04-09T05:24:14.977Z,67.50
2023-04-09T05:25:14.989Z,73.12
2023-04-09T05:26:14.952Z,73.12
2023-04-09T05:27:14.951Z,73.12
2023-04-09T05:28:14.957Z,78.75
2023-04-09T05:29:14.922Z,78.75
2023-04-09T05:30:14.907Z,78.75
2023-04-09T05:31:14.942Z,84.38
2023-04-09T05:32:14.885Z,84.38
2023-04-09T05:33:14.895Z,84.38
2023-04-09T05:34:14.890Z,84.38
2023-04-09T05:35:14.877Z,90.00
2023-04-09T05:36:14.843Z,90.00
2023-04-09T05:37:14.842Z,90.00
2023-04-09T05:38:14.828Z,95.62
2023-04-09T05:39:14.832Z,95.62
2023-04-09T05:40:14.817Z,95.62
2023-04-09T05:41:14.806Z,95.62
2023-04-09T05:42:14.780Z,101.25
2023-04-09T05:43:14.773Z,101.25
2023-04-09T05:44:14.824Z,101.25
2023-04-09T05:45:14.758Z,106.88
2023-04-09T05:46:14.778Z,106.88
2023-04-09T05:47:14.744Z,106.88
2023-04-09T05:48:14.724Z,106.88
2023-04-09T05:49:14.710Z,112.50
2023-04-09T05:50:14.717Z,112.50
2023-04-09T05:51:14.682Z,112.50
2023-04-09T05:52:14.705Z,112.50
2023-04-09T05:53:14.680Z,112.50
2023-04-09T05:54:14.657Z,118.12
2023-04-09T05:55:14.644Z,118.12
2023-04-09T05:56:14.654Z,118.12
2023-04-09T05:57:14.622Z,118.12
2023-04-09T05:58:14.620Z,123.75
2023-04-09T05:59:14.595Z,123.75
2023-04-09T06:00:14.591Z,123.75
2023-04-09T06:01:14.585Z,123.75
2023-04-09T06:02:14.747Z,123.75
2023-04-09T06:03:14.701Z,129.38
2023-04-09T06:04:14.866Z,129.38
2023-04-09T06:05:14.546Z,129.38
2023-04-09T06:06:14.515Z,129.38
2023-04-09T06:07:14.535Z,129.38
2023-04-09T06:08:14.583Z,135.00
2023-04-09T06:09:14.488Z,135.00
2023-04-09T06:10:14.479Z,135.00
2023-04-09T06:11:14.471Z,135.00
2023-04-09T06:12:14.559Z,135.00
2023-04-09T06:13:14.458Z,140.62
2023-04-09T06:14:14.430Z,140.62
2023-04-09T06:15:14.429Z,140.62
2023-04-09T06:16:14.474Z,140.62
2023-04-09T06:17:14.395Z,140.62
2023-04-09T06:18:14.412Z,146.25
2023-04-09T06:19:14.375Z,146.25
2023-04-09T06:20:14.371Z,146.25
2023-04-09T06:21:14.369Z,146.25
2023-04-09T06:22:14.346Z,146.25
2023-04-09T06:23:14.364Z,151.88
2023-04-09T06:24:14.333Z,151.88
2023-04-09T06:25:14.323Z,151.88
2023-04-09T06:26:14.303Z,151.88
2023-04-09T06:27:14.294Z,151.88
2023-04-09T06:28:14.358Z,151.88
2023-04-09T06:29:14.304Z,157.50
2023-04-09T06:30:14.274Z,157.50
2023-04-09T06:31:14.284Z,157.50
2023-04-09T06:32:14.235Z,157.50
2023-04-09T06:33:14.287Z,157.50
2023-04-09T06:34:14.223Z,157.50
2023-04-09T06:35:14.206Z,157.50
2023-04-09T06:36:14.254Z,163.12
2023-04-09T06:37:14.186Z,163.12
2023-04-09T06:38:14.174Z,163.12
2023-04-09T06:39:14.156Z,163.12
2023-04-09T06:40:14.170Z,163.12
2023-04-09T06:41:14.152Z,163.12
2023-04-09T06:42:14.123Z,163.12
2023-04-09T06:43:14.112Z,168.75
2023-04-09T06:44:14.100Z,168.75
2023-04-09T06:45:14.092Z,168.75
2023-04-09T06:46:14.146Z,168.75
2023-04-09T06:47:14.071Z,168.75
2023-04-09T06:48:14.068Z,168.75
2023-04-09T06:49:14.055Z,168.75
2023-04-09T06:50:14.046Z,174.38
2023-04-09T06:51:14.044Z,174.38
2023-04-09T06:52:14.012Z,174.38
2023-04-09T06:53:14.029Z,174.38
2023-04-09T06:54:13.984Z,174.38
2023-04-09T06:55:13.981Z,174.38
2023-04-09T06:56:13.993Z,174.38
2023-04-09T06:57:13.962Z,174.38
2023-04-09T06:58:13.971Z,180.00
2023-04-09T06:59:13.938Z,180.00
2023-04-09T07:00:13.927Z,180.00
2023-04-09T07:01:13.914Z,180.00
2023-04-09T07:02:13.957Z,180.00
2023-04-09T07:03:14.069Z,180.00
2023-04-09T07:04:13.996Z,180.00
2023-04-09T07:05:13.869Z,185.62
2023-04-09T07:06:13.853Z,185.62
2023-04-09T07:07:13.843Z,185.62
2023-04-09T07:08:13.836Z,185.62
2023-04-09T07:09:13.848Z,185.62
2023-04-09T07:10:13.810Z,185.62
2023-04-09T07:11:13.802Z,185.62
2023-04-09T07:12:13.792Z,185.62
2023-04-09T07:13:13.774Z,185.62
2023-04-09T07:14:13.764Z,191.25
2023-04-09T07:15:13.806Z,191.25
2023-04-09T07:16:13.795Z,191.25
2023-04-09T07:17:13.735Z,191.25
2023-04-09T07:18:13.742Z,191.25
2023-04-09T07:19:13.713Z,191.25
2023-04-09T07:20:13.721Z,191.25
2023-04-09T07:21:13.692Z,191.25
2023-04-09T07:22:13.676Z,191.25
2023-04-09T07:23:13.667Z,191.25
2023-04-09T07:24:13.660Z,191.25
2023-04-09T07:25:13.662Z,191.25
2023-04-09T07:26:13.642Z,191.25
2023-04-09T07:27:13.648Z,196.88
2023-04-09T07:28:13.621Z,196.88
2023-04-09T07:29:13.599Z,196.88
2023-04-09T07:30:13.639Z,196.88
2023-04-09T07:31:13.602Z,196.88
2023-04-09T07:32:13.568Z,196.88
2023-04-09T07:33:13.676Z,196.88
2023-04-09T07:34:13.556Z,196.88
2023-04-09T07:35:13.554Z,196.88
2023-04-09T07:36:13.706Z,202.50
2023-04-09T07:37:13.533Z,202.50
2023-04-09T07:38:13.566Z,202.50
2023-04-09T07:39:13.496Z,202.50
2023-04-09T07:40:13.496Z,202.50
2023-04-09T07:41:13.473Z,202.50
2023-04-09T07:42:13.474Z,202.50
2023-04-09T07:43:13.445Z,202.50
2023-04-09T07:44:13.454Z,208.12
2023-04-09T07:45:13.430Z,208.12
2023-04-09T07:46:13.432Z,208.12
2023-04-09T07:47:13.404Z,208.12
2023-04-09T07:48:13.409Z,208.12
2023-04-09T07:49:13.386Z,208.12
2023-04-09T07:50:13.368Z,208.12
2023-04-09T07:51:13.364Z,213.75
2023-04-09T07:52:13.353Z,213.75
2023-04-09T07:53:13.369Z,213.75
2023-04-09T07:54:13.348Z,213.75
2023-04-09T07:55:13.342Z,213.75
2023-04-09T07:56:13.308Z,213.75
2023-04-09T07:57:13.301Z,213.75
2023-04-09T07:58:13.339Z,219.38
2023-04-09T07:59:13.279Z,219.38
2023-04-09T08:00:13.265Z,219.38
2023-04-09T08:01:13.270Z,219.38
2023-04-09T08:02:15.234Z,219.38
2023-04-09T08:03:13.447Z,225.00
2023-04-09T08:04:13.662Z,225.00
2023-04-09T08:05:13.342Z,225.00
2023-04-09T08:06:13.198Z,225.00
2023-04-09T08:07:13.190Z,225.00
2023-04-09T08:08:13.180Z,230.62
2023-04-09T08:09:13.183Z,230.62
2023-04-09T08:10:13.157Z,230.62
2023-04-09T08:11:13.144Z,230.62
2023-04-09T08:12:13.130Z,230.62
2023-04-09T08:13:13.122Z,236.25
2023-04-09T08:14:13.139Z,236.25
2023-04-09T08:15:13.103Z,236.25
2023-04-09T08:16:13.134Z,236.25
2023-04-09T08:17:13.195Z,236.25
2023-04-09T08:18:13.078Z,236.25
2023-04-09T08:19:13.057Z,241.88
2023-04-09T08:20:13.065Z,241.88
2023-04-09T08:21:13.038Z,241.88
2023-04-09T08:22:13.028Z,241.88
2023-04-09T08:23:13.027Z,241.88
2023-04-09T08:24:13.006Z,241.88
2023-04-09T08:25:12.998Z,247.50
2023-04-09T08:26:12.995Z,247.50
2023-04-09T08:27:12.973Z,247.50
2023-04-09T08:28:12.954Z,253.12
2023-04-09T08:29:12.945Z,253.12
2023-04-09T08:30:12.935Z,253.12
2023-04-09T08:31:12.951Z,253.12
2023-04-09T08:32:13.024Z,258.75
2023-04-09T08:33:12.898Z,258.75
2023-04-09T08:34:12.890Z,258.75
2023-04-09T08:35:12.876Z,258.75
2023-04-09T08:36:12.903Z,258.75
2023-04-09T08:37:12.867Z,264.38
2023-04-09T08:38:12.855Z,264.38
2023-04-09T08:39:12.833Z,264.38
2023-04-09T08:40:12.825Z,264.38
2023-04-09T08:41:14.132Z,270.00
2023-04-09T08:42:12.820Z,270.00
2023-04-09T08:43:12.782Z,264.38
2023-04-09T08:44:12.781Z,270.00
2023-04-09T08:45:12.764Z,270.00
2023-04-09T08:46:12.852Z,270.00
2023-04-09T08:47:12.759Z,275.62
2023-04-09T08:48:12.766Z,275.62
2023-04-09T08:49:12.721Z,275.62
2023-04-09T08:50:12.702Z,281.25
2023-04-09T08:51:12.689Z,281.25
2023-04-09T08:52:12.685Z,281.25
2023-04-09T08:53:12.703Z,281.25
2023-04-09T08:54:12.658Z,286.88
2023-04-09T08:55:12.669Z,286.88
2023-04-09T08:56:12.635Z,292.50
2023-04-09T08:57:12.647Z,292.50
2023-04-09T08:58:12.680Z,298.12
2023-04-09T08:59:12.622Z,298.12
2023-04-09T09:00:12.596Z,298.12
2023-04-09T09:01:13.627Z,303.75
2023-04-09T09:02:12.757Z,303.75
2023-04-09T09:03:12.593Z,303.75
2023-04-09T09:04:12.559Z,303.75
2023-04-09T09:05:12.548Z,303.75
2023-04-09T09:06:12.536Z,309.38
2023-04-09T09:07:12.516Z,309.38
2023-04-09T09:08:12.532Z,309.38
2023-04-09T09:09:12.511Z,309.38
2023-04-09T09:10:12.478Z,309.38
2023-04-09T09:11:12.475Z,315.00
2023-04-09T09:12:12.466Z,315.00
2023-04-09T09:13:12.474Z,320.62
2023-04-09T09:14:12.435Z,326.25
2023-04-09T09:15:12.418Z,326.25
2023-04-09T09:16:12.440Z,326.25
2023-04-09T09:17:12.413Z,326.25
2023-04-09T09:18:12.383Z,331.88
2023-04-09T09:19:12.394Z,337.50
2023-04-09T09:20:12.376Z,343.12
2023-04-09T09:21:12.357Z,348.75
2023-04-09T09:22:12.342Z,348.75
2023-04-09T09:23:12.328Z,348.75
2023-04-09T09:24:12.348Z,354.38
2023-04-09T09:25:12.306Z,354.38
2023-04-09T09:26:12.304Z,354.38
2023-04-09T09:27:12.291Z,360.00
2023-04-09T09:28:12.289Z,365.62
2023-04-09T09:29:12.296Z,365.62
2023-04-09T09:30:12.287Z,365.62
2023-04-09T09:31:12.327Z,371.25
2023-04-09T09:32:12.265Z,371.25
2023-04-09T09:33:12.240Z,376.88
2023-04-09T09:34:12.225Z,376.88
2023-04-09T09:35:12.204Z,376.88
2023-04-09T09:36:12.293Z,376.88
2023-04-09T09:37:12.202Z,388.12
2023-04-09T09:38:12.168Z,399.38
2023-04-09T09:39:12.163Z,410.62
2023-04-09T09:40:12.151Z,416.25
2023-04-09T09:41:12.142Z,410.62
2023-04-09T09:42:12.148Z,416.25
2023-04-09T09:43:14.468Z,416.25
2023-04-09T09:44:12.117Z,410.62
2023-04-09T09:45:12.097Z,410.62
2023-04-09T09:46:12.148Z,421.88
2023-04-09T09:47:12.094Z,444.38
2023-04-09T09:48:12.063Z,461.25
2023-04-09T09:49:12.044Z,478.12
2023-04-09T09:50:12.042Z,506.25
2023-04-09T09:51:12.025Z,506.25
2023-04-09T09:52:12.010Z,551.25
2023-04-09T09:53:12.062Z,585.00
2023-04-09T09:54:11.987Z,545.62
2023-04-09T09:55:11.986Z,551.25
2023-04-09T09:56:11.967Z,528.75
2023-04-09T09:57:12.001Z,573.75
2023-04-09T09:58:11.952Z,613.12
2023-04-09T09:59:11.948Z,646.88
2023-04-09T10:00:12.042Z,511.88
2023-04-09T10:01:11.938Z,450.00
2023-04-09T10:02:11.962Z,455.62
2023-04-09T10:03:11.943Z,472.50
2023-04-09T10:04:11.984Z,483.75
2023-04-09T10:05:11.870Z,511.88
2023-04-09T10:06:11.860Z,545.62
2023-04-09T10:07:11.844Z,736.88
2023-04-09T10:08:11.864Z,815.62
2023-04-09T10:09:11.831Z,736.88
2023-04-09T10:10:11.832Z,888.75
2023-04-09T10:11:11.796Z,888.75
2023-04-09T10:12:11.793Z,877.50
2023-04-09T10:13:11.779Z,832.50
2023-04-09T10:14:11.788Z,804.38
2023-04-09T10:15:11.752Z,804.38
2023-04-09T10:16:11.807Z,646.88
2023-04-09T10:17:11.745Z,601.88
2023-04-09T10:18:11.732Z,607.50
2023-04-09T10:19:12.032Z,708.75
2023-04-09T10:20:11.699Z,1012.50
2023-04-09T10:21:11.699Z,1119.38
2023-04-09T10:22:11.688Z,1231.88
2023-04-09T10:23:11.667Z,1665.00
2023-04-09T10:24:11.675Z,2615.62
2023-04-09T10:25:11.669Z,3256.88
2023-04-09T10:26:11.634Z,883.12
2023-04-09T10:27:13.643Z,1344.38
2023-04-09T10:28:11.613Z,2750.62
2023-04-09T10:29:11.605Z,1181.25
2023-04-09T10:30:11.591Z,855.00
2023-04-09T10:31:11.615Z,821.25
2023-04-09T10:32:11.569Z,815.62
2023-04-09T10:33:11.557Z,776.25
2023-04-09T10:34:11.546Z,742.50
2023-04-09T10:35:11.535Z,725.62
2023-04-09T10:36:11.540Z,973.12
2023-04-09T10:37:11.532Z,1856.25
2023-04-09T10:38:11.529Z,1406.25
2023-04-09T10:39:11.486Z,945.00
2023-04-09T10:40:11.477Z,894.38
2023-04-09T10:41:11.465Z,888.75
2023-04-09T10:42:11.453Z,905.62
2023-04-09T10:43:11.448Z,916.88
2023-04-09T10:44:11.465Z,956.25
2023-04-09T10:45:11.441Z,978.75
2023-04-09T10:46:11.433Z,984.38
2023-04-09T10:47:11.400Z,928.12
2023-04-09T10:48:11.416Z,945.00
2023-04-09T10:49:11.385Z,1501.88
2023-04-09T10:50:11.371Z,1012.50
2023-04-09T10:51:11.354Z,3031.88
2023-04-09T10:52:12.214Z,3110.62
2023-04-09T10:53:11.334Z,3262.50
2023-04-09T10:54:11.352Z,3375.00
2023-04-09T10:55:11.314Z,3318.75
2023-04-09T10:56:11.316Z,894.38
2023-04-09T10:57:11.306Z,939.38
2023-04-09T10:58:13.323Z,2598.75
2023-04-09T10:59:11.292Z,3448.12
2023-04-09T11:00:11.256Z,1023.75
2023-04-09T11:01:11.246Z,911.25
2023-04-09T11:02:11.319Z,855.00
2023-04-09T11:03:11.297Z,871.88
2023-04-09T11:04:11.319Z,1063.12
2023-04-09T11:05:11.228Z,1923.75
2023-04-09T11:06:11.222Z,1051.88
2023-04-09T11:07:11.184Z,900.00
2023-04-09T11:08:11.186Z,877.50
2023-04-09T11:09:11.178Z,2716.88
2023-04-09T11:10:11.176Z,3228.75
2023-04-09T11:11:11.133Z,3532.50
2023-04-09T11:12:11.127Z,3093.75
2023-04-09T11:13:11.115Z,1203.75
2023-04-09T11:14:11.146Z,1125.00
2023-04-09T11:15:11.097Z,1108.12
2023-04-09T11:16:11.147Z,3071.25
2023-04-09T11:17:11.067Z,3448.12
2023-04-09T11:18:11.059Z,3251.25
2023-04-09T11:19:11.066Z,1271.25
2023-04-09T11:20:11.047Z,3290.62
2023-04-09T11:21:11.020Z,933.75
2023-04-09T11:22:11.010Z,978.75
2023-04-09T11:23:11.000Z,2081.25
2023-04-09T11:24:11.025Z,1113.75
2023-04-09T11:25:10.983Z,1215.00
2023-04-09T11:26:10.972Z,1057.50
2023-04-09T11:27:10.956Z,950.62
2023-04-09T11:28:10.949Z,939.38
2023-04-09T11:29:10.955Z,1968.75
2023-04-09T11:30:10.941Z,1501.88
2023-04-09T11:31:10.934Z,1119.38
2023-04-09T11:32:10.902Z,1068.75
2023-04-09T11:33:10.924Z,1057.50
2023-04-09T11:34:10.883Z,1113.75
2023-04-09T11:35:10.886Z,1147.50
2023-04-09T11:36:10.899Z,1119.38
2023-04-09T11:37:10.842Z,1051.88
2023-04-09T11:38:10.838Z,978.75
2023-04-09T11:39:10.843Z,978.75
2023-04-09T11:40:10.806Z,1074.38
2023-04-09T11:41:10.815Z,2739.38
2023-04-09T11:42:10.783Z,3504.38
2023-04-09T11:43:10.771Z,3183.75
2023-04-09T11:44:10.765Z,1642.50
2023-04-09T11:45:10.755Z,1141.88
2023-04-09T11:46:10.763Z,1175.62
2023-04-09T11:47:10.906Z,3487.50
2023-04-09T11:48:10.717Z,3645.00
2023-04-09T11:49:10.706Z,3628.12
2023-04-09T11:50:10.780Z,3678.75
2023-04-09T11:51:10.688Z,3650.62
2023-04-09T11:52:10.694Z,3583.12
2023-04-09T11:53:10.661Z,3448.12
2023-04-09T11:54:10.678Z,3667.50
2023-04-09T11:55:10.643Z,3605.62
2023-04-09T11:56:10.636Z,1293.75
2023-04-09T11:57:10.625Z,2621.25
2023-04-09T11:58:10.618Z,1243.12
2023-04-09T11:59:10.626Z,1068.75
2023-04-09T12:00:10.595Z,995.62
2023-04-09T12:01:10.580Z,1035.00
2023-04-09T12:02:10.677Z,1125.00
2023-04-09T12:03:10.911Z,2553.75
2023-04-09T12:04:10.687Z,1248.75
2023-04-09T12:05:10.579Z,1226.25
2023-04-09T12:06:10.525Z,1305.00
2023-04-09T12:07:10.510Z,1434.38
2023-04-09T12:08:10.515Z,1271.25
2023-04-09T12:09:10.495Z,1108.12
2023-04-09T12:10:10.496Z,984.38
2023-04-09T12:11:10.504Z,900.00
2023-04-09T12:12:10.460Z,826.88
2023-04-09T12:13:10.552Z,759.38
2023-04-09T12:14:10.437Z,725.62
2023-04-09T12:15:10.422Z,697.50
2023-04-09T12:16:10.471Z,686.25
2023-04-09T12:17:10.404Z,703.12
2023-04-09T12:18:10.414Z,731.25
2023-04-09T12:19:10.402Z,776.25
2023-04-09T12:20:10.381Z,793.12
2023-04-09T12:21:10.437Z,776.25
2023-04-09T12:22:10.357Z,742.50
2023-04-09T12:23:10.430Z,714.38
2023-04-09T12:24:10.328Z,703.12
2023-04-09T12:25:10.340Z,703.12
2023-04-09T12:26:10.326Z,714.38
2023-04-09T12:27:10.291Z,736.88
2023-04-09T12:28:10.284Z,787.50
2023-04-09T12:29:10.271Z,877.50
2023-04-09T12:30:10.260Z,1029.38
2023-04-09T12:31:10.262Z,3178.12
2023-04-09T12:32:10.362Z,3571.88
2023-04-09T12:33:11.363Z,3571.88
2023-04-09T12:34:10.218Z,3431.25
2023-04-09T12:35:10.216Z,3369.38
2023-04-09T12:36:10.259Z,3431.25
2023-04-09T12:37:10.182Z,1389.38
2023-04-09T12:38:10.201Z,1715.62
2023-04-09T12:39:10.157Z,1220.62
2023-04-09T12:40:10.164Z,1012.50
2023-04-09T12:41:10.142Z,1046.25
2023-04-09T12:42:10.129Z,978.75
2023-04-09T12:43:10.109Z,1023.75
2023-04-09T12:44:10.130Z,1046.25
2023-04-09T12:45:10.107Z,1035.00